Time;durP1;ratioP1;P1;durP2;ratioP2;P2;SDS_P1;SDS_P2;PMS_P1;PMS_P2;Temp;Humidity;BMP_temperature;BMP_pressure;BME280_temperature;BME280_humidity;BME280_pressure;Samples;Min_cycle;Max_cycle;Signal;HPM_P1;HPM_P2
2022/08/13 00:02:18;;;;;;;;;;;21.00;99.90;;;;;;5135416;27;20014;-71
2022/08/13 00:04:55;;;;;;;;;;;20.90;99.90;;;;;;5135112;27;19924;-72
2022/08/13 00:07:20;;;;;;;;;;;20.90;99.90;;;;;;5135156;27;19923;-72
2022/08/13 00:09:46;;;;;;;;;;;20.80;99.90;;;;;;5151156;27;19946;-73
2022/08/13 00:14:59;;;;;;;;;;;20.70;99.90;;;;;;5135093;27;19980;-71
2022/08/13 00:17:25;;;;;;;;;;;20.70;99.90;;;;;;5135100;27;20018;-71
2022/08/13 00:19:51;;;;;;;;;;;20.70;99.90;;;;;;5134981;27;19978;-71
2022/08/13 00:22:19;;;;;;;;;;;20.60;99.90;;;;;;5134896;27;19946;-72
2022/08/13 00:24:45;;;;;;;;;;;20.60;99.90;;;;;;5116701;27;19929;-71
2022/08/13 00:27:11;;;;;;;;;;;20.60;99.90;;;;;;5135003;27;19931;-71
2022/08/13 00:29:38;;;;;;;;;;;20.60;99.90;;;;;;5134957;27;19967;-72
2022/08/13 00:32:04;;;;;;;;;;;20.50;99.90;;;;;;5134258;27;19981;-71
2022/08/13 00:34:30;;;;;;;;;;;20.50;99.90;;;;;;5116484;27;19923;-71
2022/08/13 00:36:55;;;;;;;;;;;20.50;99.90;;;;;;5134429;27;20405;-71
2022/08/13 00:39:21;;;;;;;;;;;20.50;99.90;;;;;;5134547;27;19930;-71
2022/08/13 00:41:47;;;;;;;;;;;20.50;99.90;;;;;;5134855;27;19931;-72
2022/08/13 00:44:14;;;;;;;;;;;20.40;99.90;;;;;;5134691;27;19923;-72
2022/08/13 00:46:40;;;;;;;;;;;20.40;99.90;;;;;;5151114;27;19931;-71
2022/08/13 00:49:06;;;;;;;;;;;20.40;99.90;;;;;;5116646;28;20324;-72
2022/08/13 00:51:33;;;;;;;;;;;20.30;99.90;;;;;;5134503;28;19924;-70
2022/08/13 00:53:59;;;;;;;;;;;20.30;99.90;;;;;;5134467;28;19927;-72
2022/08/13 00:56:25;;;;;;;;;;;20.30;99.90;;;;;;5134744;28;20366;-71
2022/08/13 00:58:51;;;;;;;;;;;20.30;99.90;;;;;;5134665;28;19976;-72
2022/08/13 01:01:20;;;;;;;;;;;20.30;99.90;;;;;;5134661;28;19924;-73
2022/08/13 01:03:46;;;;;;;;;;;20.30;99.90;;;;;;5134529;28;20427;-70
2022/08/13 01:06:12;;;;;;;;;;;20.20;99.90;;;;;;5134416;28;20309;-72
2022/08/13 01:08:41;;;;;;;;;;;20.20;99.90;;;;;;5116345;28;19927;-73
2022/08/13 01:11:08;;;;;;;;;;;20.20;99.90;;;;;;5116280;28;19971;-71
2022/08/13 01:13:34;;;;;;;;;;;20.20;99.90;;;;;;5134507;28;19968;-71
2022/08/13 01:16:13;;;;;;;;;;;20.20;99.90;;;;;;5134468;28;19923;-71
2022/08/13 01:18:41;;;;;;;;;;;20.20;99.90;;;;;;5134367;28;19975;-72
2022/08/13 01:21:09;;;;;;;;;;;20.10;99.90;;;;;;5115294;28;19967;-71
2022/08/13 01:23:35;;;;;;;;;;;20.10;99.90;;;;;;5134481;28;19928;-71
2022/08/13 01:26:01;;;;;;;;;;;20.10;99.90;;;;;;5116349;28;19927;-73
2022/08/13 01:28:27;;;;;;;;;;;20.10;99.90;;;;;;5134241;28;20305;-71
2022/08/13 01:30:53;;;;;;;;;;;20.00;99.90;;;;;;5134277;28;19977;-71
2022/08/13 01:33:20;;;;;;;;;;;20.10;99.90;;;;;;5134218;28;20495;-72
2022/08/13 01:35:46;;;;;;;;;;;20.10;99.90;;;;;;5134109;28;19931;-71
2022/08/13 01:38:13;;;;;;;;;;;20.10;99.90;;;;;;5134036;28;19951;-71
2022/08/13 01:40:39;;;;;;;;;;;20.00;99.90;;;;;;5134219;28;19923;-70
2022/08/13 01:43:05;;;;;;;;;;;20.00;99.90;;;;;;5135823;27;20386;-71
2022/08/13 01:45:31;;;;;;;;;;;20.00;99.90;;;;;;5137988;27;20023;-71
2022/08/13 01:50:41;;;;;;;;;;;20.00;99.90;;;;;;5119524;27;20026;-72
2022/08/13 01:53:11;;;;;;;;;;;19.90;99.90;;;;;;5137893;27;19930;-72
2022/08/13 01:55:39;;;;;;;;;;;19.90;99.90;;;;;;5137872;27;19931;-71
2022/08/13 01:58:08;;;;;;;;;;;19.80;99.90;;;;;;5137776;27;19948;-73
2022/08/13 02:00:35;;;;;;;;;;;19.80;99.90;;;;;;5137817;27;20014;-71
2022/08/13 02:03:05;;;;;;;;;;;19.80;99.90;;;;;;5137601;27;19946;-71
2022/08/13 02:05:32;;;;;;;;;;;19.80;99.90;;;;;;5137306;27;20374;-71
2022/08/13 02:07:58;;;;;;;;;;;19.80;99.90;;;;;;5137691;27;20356;-71
2022/08/13 02:10:24;;;;;;;;;;;19.70;99.90;;;;;;5137596;27;19968;-72
2022/08/13 02:12:50;;;;;;;;;;;19.70;99.90;;;;;;5137594;27;19924;-72
2022/08/13 02:15:16;;;;;;;;;;;19.60;99.90;;;;;;5137372;27;19931;-72
2022/08/13 02:17:42;;;;;;;;;;;19.70;99.90;;;;;;5119148;27;19946;-71
2022/08/13 02:20:11;;;;;;;;;;;19.70;99.90;;;;;;5137153;27;19927;-71
2022/08/13 02:22:37;;;;;;;;;;;19.60;99.90;;;;;;5137136;27;20290;-71
2022/08/13 02:25:03;;;;;;;;;;;19.60;99.90;;;;;;5137204;27;19924;-71
2022/08/13 02:27:29;;;;;;;;;;;19.50;99.90;;;;;;5153557;27;20362;-71
2022/08/13 02:29:55;;;;;;;;;;;19.60;99.90;;;;;;5137058;27;19923;-73
2022/08/13 02:32:23;;;;;;;;;;;19.50;99.90;;;;;;5118970;27;20312;-71
2022/08/13 02:34:50;;;;;;;;;;;19.00;99.90;;;;;;5136837;27;19939;-71
2022/08/13 02:37:16;;;;;;;;;;;19.50;99.90;;;;;;5118585;27;19930;-72
2022/08/13 02:39:42;;;;;;;;;;;19.40;99.90;;;;;;5136980;27;19927;-71
2022/08/13 02:42:09;;;;;;;;;;;19.50;99.90;;;;;;5101689;27;19933;-71
2022/08/13 02:44:35;;;;;;;;;;;19.50;99.90;;;;;;5136723;27;19923;-70
2022/08/13 02:47:01;;;;;;;;;;;19.40;99.90;;;;;;5118774;27;19923;-73
2022/08/13 02:49:27;;;;;;;;;;;19.40;99.90;;;;;;5118596;27;19947;-72
2022/08/13 02:51:53;;;;;;;;;;;19.40;99.90;;;;;;5118746;27;20378;-71
2022/08/13 02:54:20;;;;;;;;;;;19.40;99.90;;;;;;5136066;27;20288;-71
2022/08/13 02:56:46;;;;;;;;;;;19.40;99.90;;;;;;5136716;27;19927;-71
2022/08/13 02:59:12;;;;;;;;;;;19.40;99.90;;;;;;5152909;27;20319;-71
2022/08/13 03:01:39;;;;;;;;;;;19.30;99.90;;;;;;5136513;27;19928;-70
2022/08/13 03:04:08;;;;;;;;;;;19.30;99.90;;;;;;5152613;27;19949;-72
2022/08/13 03:06:34;;;;;;;;;;;19.30;99.90;;;;;;5136544;27;19924;-71
2022/08/13 03:09:01;;;;;;;;;;;19.30;99.90;;;;;;5118229;27;19976;-71
2022/08/13 03:11:28;;;;;;;;;;;19.20;99.90;;;;;;5136378;27;19931;-71
2022/08/13 03:13:58;;;;;;;;;;;19.30;99.90;;;;;;5136118;27;20000;-71
2022/08/13 03:16:25;;;;;;;;;;;19.20;99.90;;;;;;5136228;27;19923;-71
2022/08/13 03:18:53;;;;;;;;;;;19.20;99.90;;;;;;5136021;27;19924;-72
2022/08/13 03:21:19;;;;;;;;;;;19.10;99.90;;;;;;5135946;27;20389;-71
2022/08/13 03:23:46;;;;;;;;;;;19.10;99.90;;;;;;5136149;27;20347;-71
2022/08/13 03:26:11;;;;;;;;;;;19.10;99.90;;;;;;5135878;27;20420;-70
2022/08/13 03:28:38;;;;;;;;;;;19.10;99.90;;;;;;5135877;27;19923;-70
2022/08/13 03:31:05;;;;;;;;;;;18.90;99.90;;;;;;5135827;27;19923;-71
2022/08/13 03:33:31;;;;;;;;;;;19.00;99.90;;;;;;5117699;27;19923;-71
2022/08/13 03:35:57;;;;;;;;;;;19.00;99.90;;;;;;5135811;27;19930;-71
2022/08/13 03:38:23;;;;;;;;;;;18.90;99.90;;;;;;5135906;27;19923;-70
2022/08/13 03:41:00;;;;;;;;;;;19.10;99.90;;;;;;5135723;27;19930;-71
2022/08/13 03:43:27;;;;;;;;;;;18.90;99.90;;;;;;5135867;27;19931;-71
2022/08/13 03:45:54;;;;;;;;;;;18.90;99.90;;;;;;5117138;27;20514;-71
2022/08/13 03:48:20;;;;;;;;;;;18.90;99.90;;;;;;5117768;27;20018;-72
2022/08/13 03:50:46;;;;;;;;;;;18.80;99.90;;;;;;5117579;27;19923;-72
2022/08/13 03:53:12;;;;;;;;;;;18.80;99.90;;;;;;5135517;27;19977;-71
2022/08/13 03:55:39;;;;;;;;;;;18.80;99.90;;;;;;5135439;27;19935;-72
2022/08/13 03:58:05;;;;;;;;;;;18.80;99.90;;;;;;5135375;27;19923;-71
2022/08/13 04:00:32;;;;;;;;;;;18.80;99.90;;;;;;5135356;27;19931;-72
2022/08/13 04:02:58;;;;;;;;;;;18.70;99.90;;;;;;5116910;27;20362;-71
2022/08/13 04:05:24;;;;;;;;;;;18.70;99.90;;;;;;5134849;27;19973;-71
2022/08/13 04:07:50;;;;;;;;;;;18.70;99.90;;;;;;5134759;27;19923;-71
2022/08/13 04:10:16;;;;;;;;;;;18.70;99.90;;;;;;5135435;27;19923;-71
2022/08/13 04:12:42;;;;;;;;;;;18.70;99.90;;;;;;5117091;27;19924;-72
2022/08/13 04:15:07;;;;;;;;;;;18.70;99.90;;;;;;5135082;27;19934;-71
2022/08/13 04:17:35;;;;;;;;;;;18.70;99.90;;;;;;5134926;27;19931;-70
2022/08/13 04:20:01;;;;;;;;;;;18.60;99.90;;;;;;5150413;27;19923;-70
2022/08/13 04:22:27;;;;;;;;;;;18.60;99.90;;;;;;5135109;27;19930;-72
2022/08/13 04:24:52;;;;;;;;;;;18.60;99.90;;;;;;5116699;27;20302;-70
2022/08/13 04:27:18;;;;;;;;;;;18.60;99.90;;;;;;5134968;27;19928;-72
2022/08/13 04:29:44;;;;;;;;;;;18.60;99.90;;;;;;5134895;27;19928;-71
2022/08/13 04:32:09;;;;;;;;;;;18.60;99.90;;;;;;5116789;28;20374;-71
2022/08/13 04:34:35;;;;;;;;;;;18.60;99.90;;;;;;5134954;27;19931;-72
2022/08/13 04:37:03;;;;;;;;;;;18.50;99.90;;;;;;5134805;27;19989;-70
2022/08/13 04:39:29;;;;;;;;;;;18.60;99.90;;;;;;5134790;27;20002;-71
2022/08/13 04:41:54;;;;;;;;;;;18.50;99.90;;;;;;5134617;27;19948;-70
2022/08/13 04:44:20;;;;;;;;;;;18.50;99.90;;;;;;5116326;27;19927;-71
2022/08/13 04:46:46;;;;;;;;;;;18.50;99.90;;;;;;5134650;28;19927;-73
2022/08/13 04:49:12;;;;;;;;;;;18.50;99.90;;;;;;5134629;28;19923;-72
2022/08/13 04:51:38;;;;;;;;;;;18.50;99.90;;;;;;5134745;28;19924;-70
2022/08/13 04:54:04;;;;;;;;;;;18.60;99.90;;;;;;5134656;28;20377;-72
2022/08/13 04:56:29;;;;;;;;;;;18.60;99.90;;;;;;5134657;28;20040;-70
2022/08/13 04:58:55;;;;;;;;;;;18.60;99.90;;;;;;5134771;28;19966;-70
2022/08/13 05:01:21;;;;;;;;;;;18.30;99.90;;;;;;5116190;28;19924;-72
2022/08/13 05:03:47;;;;;;;;;;;18.60;99.90;;;;;;5116173;28;19923;-72
2022/08/13 05:06:19;;;;;;;;;;;18.60;99.90;;;;;;5134562;28;19923;-71
2022/08/13 05:08:51;;;;;;;;;;;18.60;99.90;;;;;;5134595;28;19924;-70
2022/08/13 05:11:19;;;;;;;;;;;18.50;99.90;;;;;;5134464;28;19974;-70
2022/08/13 05:13:45;;;;;;;;;;;18.60;99.90;;;;;;5134352;28;19959;-70
2022/08/13 05:16:12;;;;;;;;;;;18.60;99.90;;;;;;5134408;28;19923;-72
2022/08/13 05:18:38;;;;;;;;;;;18.60;99.90;;;;;;5137438;27;19971;-70
2022/08/13 05:21:08;;;;;;;;;;;18.60;99.90;;;;;;5119755;27;19997;-73
2022/08/13 05:23:34;;;;;;;;;;;18.60;99.90;;;;;;5120265;27;19924;-72
2022/08/13 05:26:00;;;;;;;;;;;18.60;99.90;;;;;;5138414;27;19923;-71
2022/08/13 05:28:26;;;;;;;;;;;18.60;99.90;;;;;;5138298;27;19969;-71
2022/08/13 05:30:52;;;;;;;;;;;17.90;99.90;;;;;;5138199;27;19924;-71
2022/08/13 05:33:22;;;;;;;;;;;18.60;99.90;;;;;;5120071;27;19927;-72
2022/08/13 05:35:48;;;;;;;;;;;18.60;99.90;;;;;;5119835;27;19923;-71
2022/08/13 05:38:22;;;;;;;;;;;18.60;99.90;;;;;;5138144;27;19924;-71
2022/08/13 05:40:51;;;;;;;;;;;18.60;99.90;;;;;;5138123;27;19924;-73
2022/08/13 05:43:18;;;;;;;;;;;18.70;99.90;;;;;;5119981;27;19930;-69
2022/08/13 05:45:47;;;;;;;;;;;18.70;99.90;;;;;;5137916;27;19924;-73
2022/08/13 05:48:13;;;;;;;;;;;18.70;99.90;;;;;;5138084;27;19989;-71
2022/08/13 05:50:38;;;;;;;;;;;18.70;99.90;;;;;;5137926;27;19974;-71
2022/08/13 05:53:08;;;;;;;;;;;18.80;99.90;;;;;;5119827;27;19973;-72
2022/08/13 05:55:35;;;;;;;;;;;18.80;99.90;;;;;;5119031;27;19958;-71
2022/08/13 05:58:02;;;;;;;;;;;18.80;99.90;;;;;;5137730;27;19923;-71
2022/08/13 06:03:27;;;;;;;;;;;18.90;99.90;;;;;;5137689;27;19931;-71
2022/08/13 06:05:54;;;;;;;;;;;19.00;99.90;;;;;;5137483;27;20018;-72
2022/08/13 06:08:26;;;;;;;;;;;19.00;99.90;;;;;;5137629;27;19923;-71
2022/08/13 06:10:52;;;;;;;;;;;19.10;99.90;;;;;;5153769;27;20401;-72
2022/08/13 06:13:17;;;;;;;;;;;19.20;99.90;;;;;;5137619;27;19932;-71
2022/08/13 06:15:44;;;;;;;;;;;19.20;99.90;;;;;;5137509;27;20019;-70
2022/08/13 06:18:11;;;;;;;;;;;19.30;99.90;;;;;;5137368;27;20378;-70
2022/08/13 06:20:40;;;;;;;;;;;19.30;99.90;;;;;;5137342;27;19923;-70
2022/08/13 06:23:06;;;;;;;;;;;19.30;99.90;;;;;;5137343;27;19924;-71
2022/08/13 06:25:32;;;;;;;;;;;19.40;99.90;;;;;;5118347;27;19923;-70
2022/08/13 06:28:00;;;;;;;;;;;19.50;99.90;;;;;;5137335;27;20382;-71
2022/08/13 06:30:28;;;;;;;;;;;19.60;99.90;;;;;;5136135;27;19923;-71
2022/08/13 06:33:02;;;;;;;;;;;19.60;99.90;;;;;;5137168;27;20477;-72
2022/08/13 06:35:28;;;;;;;;;;;19.70;99.90;;;;;;5118690;27;19938;-70
2022/08/13 06:37:54;;;;;;;;;;;19.70;99.90;;;;;;5136969;27;19966;-70
2022/08/13 06:40:21;;;;;;;;;;;19.80;99.90;;;;;;5136784;27;19977;-71
2022/08/13 06:42:47;;;;;;;;;;;19.90;99.90;;;;;;5137018;27;19924;-71
2022/08/13 06:45:12;;;;;;;;;;;19.90;99.90;;;;;;5136907;27;20331;-70
2022/08/13 06:47:39;;;;;;;;;;;20.00;99.90;;;;;;5118766;27;20370;-71
2022/08/13 06:50:09;;;;;;;;;;;20.10;99.90;;;;;;5118635;27;19924;-71
2022/08/13 06:52:36;;;;;;;;;;;20.20;99.90;;;;;;5152116;27;19946;-70
2022/08/13 06:55:02;;;;;;;;;;;20.20;99.90;;;;;;5136526;27;19927;-71
2022/08/13 06:57:30;;;;;;;;;;;20.30;99.90;;;;;;5151703;27;20398;-73
2022/08/13 06:59:57;;;;;;;;;;;20.40;99.90;;;;;;5136636;27;19927;-72
2022/08/13 07:02:24;;;;;;;;;;;20.50;99.90;;;;;;5136420;27;20393;-71
2022/08/13 07:04:50;;;;;;;;;;;20.60;99.90;;;;;;5136044;27;19923;-71
2022/08/13 07:07:17;;;;;;;;;;;20.70;99.90;;;;;;5136170;27;20374;-71
2022/08/13 07:09:44;;;;;;;;;;;20.80;99.90;;;;;;5136170;27;19931;-72
2022/08/13 07:12:12;;;;;;;;;;;20.90;99.90;;;;;;5136436;27;19928;-71
2022/08/13 07:14:40;;;;;;;;;;;21.00;99.90;;;;;;5136334;27;19923;-71
2022/08/13 07:17:06;;;;;;;;;;;21.10;99.90;;;;;;5151566;27;19969;-71
2022/08/13 07:19:33;;;;;;;;;;;21.20;99.90;;;;;;5151854;27;19927;-72
2022/08/13 07:21:59;;;;;;;;;;;21.20;99.90;;;;;;5135975;27;19927;-73
2022/08/13 07:24:26;;;;;;;;;;;21.30;99.90;;;;;;5135782;27;20014;-72
2022/08/13 07:26:59;;;;;;;;;;;21.40;99.90;;;;;;5136039;27;19980;-72
2022/08/13 07:29:26;;;;;;;;;;;21.50;99.90;;;;;;5136086;27;19923;-71
2022/08/13 07:31:53;;;;;;;;;;;21.60;99.90;;;;;;5135986;27;19923;-72
2022/08/13 07:34:19;;;;;;;;;;;21.70;99.90;;;;;;5135824;27;20405;-71
2022/08/13 07:36:45;;;;;;;;;;;21.80;99.90;;;;;;5135900;27;19923;-73
2022/08/13 07:39:12;;;;;;;;;;;21.90;99.90;;;;;;5135606;27;19949;-71
2022/08/13 07:41:41;;;;;;;;;;;22.00;99.90;;;;;;5135663;27;20542;-73
2022/08/13 07:44:10;;;;;;;;;;;22.00;99.90;;;;;;5150765;27;20405;-73
2022/08/13 07:46:40;;;;;;;;;;;22.10;99.90;;;;;;5135650;27;19923;-71
2022/08/13 07:49:06;;;;;;;;;;;22.20;99.90;;;;;;5135574;27;19930;-71
2022/08/13 07:51:32;;;;;;;;;;;22.30;99.90;;;;;;5135338;27;19965;-71
2022/08/13 07:53:57;;;;;;;;;;;22.40;99.90;;;;;;5135350;27;20410;-72
2022/08/13 07:56:28;;;;;;;;;;;22.50;99.90;;;;;;5117437;27;19930;-72
2022/08/13 07:59:00;;;;;;;;;;;22.60;99.90;;;;;;5134903;27;19929;-72
2022/08/13 08:01:29;;;;;;;;;;;22.70;99.90;;;;;;5136821;27;20010;-71
2022/08/13 08:03:59;;;;;;;;;;;22.80;99.90;;;;;;5151276;27;19923;-74
2022/08/13 08:06:25;;;;;;;;;;;22.90;99.90;;;;;;5135066;27;19924;-72
2022/08/13 08:08:54;;;;;;;;;;;22.90;99.90;;;;;;5135372;27;20010;-74
2022/08/13 08:14:07;;;;;;;;;;;23.10;99.90;;;;;;5135052;27;20498;-71
2022/08/13 08:16:36;;;;;;;;;;;23.20;99.90;;;;;;5135064;27;19935;-73
2022/08/13 08:19:02;;;;;;;;;;;23.30;99.90;;;;;;5135036;27;19992;-72
2022/08/13 08:21:28;;;;;;;;;;;23.40;99.90;;;;;;5117060;27;20302;-72
2022/08/13 08:24:01;;;;;;;;;;;23.50;99.90;;;;;;5116706;27;19923;-72
2022/08/13 08:26:28;;;;;;;;;;;23.60;99.90;;;;;;5134908;27;19962;-71
2022/08/13 08:28:55;;;;;;;;;;;23.70;99.90;;;;;;5135130;27;19930;-71
2022/08/13 08:31:21;;;;;;;;;;;23.70;99.90;;;;;;5134880;27;19930;-72
2022/08/13 08:33:47;;;;;;;;;;;23.80;99.90;;;;;;5116602;27;20417;-72
2022/08/13 08:36:13;;;;;;;;;;;23.90;98.90;;;;;;5134859;27;20010;-72
2022/08/13 08:44:20;;;;;;;;;;;24.00;97.30;;;;;;5134388;27;19931;-72
2022/08/13 08:46:48;;;;;;;;;;;24.30;97.30;;;;;;5134806;27;19923;-72
2022/08/13 08:49:15;;;;;;;;;;;24.40;95.20;;;;;;5134821;28;20014;-76
2022/08/13 08:51:41;;;;;;;;;;;24.50;94.50;;;;;;5135205;27;19948;-72
2022/08/13 08:54:07;;;;;;;;;;;24.60;94.60;;;;;;5141259;27;19969;-72
2022/08/13 08:56:34;;;;;;;;;;;24.70;94.60;;;;;;5141317;27;19924;-73
2022/08/13 08:59:01;;;;;;;;;;;24.80;94.10;;;;;;5141293;27;20339;-75
2022/08/13 09:01:27;;;;;;;;;;;24.90;92.00;;;;;;5141330;27;20277;-73
2022/08/13 09:03:56;;;;;;;;;;;25.00;87.90;;;;;;5106033;27;19984;-72
2022/08/13 09:06:23;;;;;;;;;;;25.00;94.20;;;;;;5141345;27;20366;-72
2022/08/13 09:08:52;;;;;;;;;;;25.10;89.50;;;;;;5123248;27;19927;-73
2022/08/13 09:11:19;;;;;;;;;;;25.20;89.20;;;;;;5141319;27;19954;-72
2022/08/13 09:13:49;;;;;;;;;;;25.20;87.40;;;;;;5141385;27;20305;-74
2022/08/13 09:16:14;;;;;;;;;;;25.30;89.40;;;;;;5123041;27;20301;-73
2022/08/13 09:18:40;;;;;;;;;;;25.40;85.90;;;;;;5123317;27;19930;-72
2022/08/13 09:21:06;;;;;;;;;;;25.50;87.90;;;;;;5141216;27;19930;-72
2022/08/13 09:23:34;;;;;;;;;;;25.60;88.10;;;;;;5143210;27;19936;-74
2022/08/13 09:25:59;;;;;;;;;;;25.70;88.70;;;;;;5159933;27;19923;-72
2022/08/13 09:28:26;;;;;;;;;;;25.80;89.20;;;;;;5181676;27;20017;-72
2022/08/13 09:30:52;;;;;;;;;;;25.90;82.10;;;;;;5182946;27;19936;-72
2022/08/13 09:33:19;;;;;;;;;;;26.00;82.00;;;;;;5182994;27;19934;-72
2022/08/13 09:35:48;;;;;;;;;;;26.10;79.70;;;;;;5182807;27;19930;-72
2022/08/13 09:38:15;;;;;;;;;;;26.20;80.20;;;;;;5182732;27;20297;-72
2022/08/13 09:40:54;;;;;;;;;;;26.20;78.70;;;;;;5182791;27;20345;-71
2022/08/13 09:43:21;;;;;;;;;;;26.30;77.00;;;;;;5182836;27;19967;-71
2022/08/13 09:45:48;;;;;;;;;;;26.40;78.60;;;;;;5164516;27;20025;-73
2022/08/13 09:48:15;;;;;;;;;;;26.50;75.10;;;;;;5182654;27;19923;-71
2022/08/13 09:50:41;;;;;;;;;;;26.60;73.70;;;;;;5182606;27;20014;-71
2022/08/13 09:53:07;;;;;;;;;;;26.70;73.30;;;;;;5182616;27;20330;-73
2022/08/13 09:55:35;;;;;;;;;;;26.70;71.10;;;;;;5182507;27;19926;-72
2022/08/13 09:58:01;;;;;;;;;;;26.80;73.60;;;;;;5182633;27;20005;-73
2022/08/13 10:00:28;;;;;;;;;;;26.90;70.90;;;;;;5164309;27;20418;-72
2022/08/13 10:02:59;;;;;;;;;;;27.00;72.00;;;;;;5182549;27;19923;-73
2022/08/13 10:05:25;;;;;;;;;;;27.10;73.40;;;;;;5179261;27;19923;-72
2022/08/13 10:07:52;;;;;;;;;;;27.10;70.90;;;;;;5160455;27;20385;-71
2022/08/13 10:10:17;;;;;;;;;;;27.20;68.70;;;;;;5179062;27;20364;-72
2022/08/13 10:12:43;;;;;;;;;;;27.30;69.10;;;;;;5166153;27;19923;-72
2022/08/13 10:15:09;;;;;;;;;;;27.40;70.20;;;;;;5156900;27;20366;-72
2022/08/13 10:17:45;;;;;;;;;;;27.40;63.90;;;;;;5179099;27;20005;-72
2022/08/13 10:20:12;;;;;;;;;;;27.50;65.30;;;;;;5179014;27;19922;-73
2022/08/13 10:22:37;;;;;;;;;;;27.50;63.40;;;;;;5157735;27;19970;-72
2022/08/13 10:25:03;;;;;;;;;;;27.50;64.10;;;;;;5140925;27;19970;-73
2022/08/13 10:27:28;;;;;;;;;;;27.60;65.80;;;;;;5158034;27;19931;-73
2022/08/13 10:29:54;;;;;;;;;;;27.60;65.20;;;;;;5157926;27;19923;-73
2022/08/13 10:32:19;;;;;;;;;;;27.60;64.30;;;;;;5157907;27;19953;-73
2022/08/13 10:34:45;;;;;;;;;;;27.60;62.40;;;;;;5157798;27;19923;-75
2022/08/13 10:37:11;;;;;;;;;;;27.60;60.30;;;;;;5134156;27;19977;-72
2022/08/13 10:39:37;;;;;;;;;;;27.70;58.70;;;;;;5136800;27;19924;-72
2022/08/13 10:42:03;;;;;;;;;;;27.70;61.10;;;;;;5136447;27;19945;-73
2022/08/13 10:44:29;;;;;;;;;;;27.70;61.70;;;;;;5153139;27;19926;-72
2022/08/13 10:46:54;;;;;;;;;;;27.70;63.20;;;;;;5139929;27;19930;-72
2022/08/13 10:49:20;;;;;;;;;;;27.80;62.70;;;;;;5156144;27;19923;-72
2022/08/13 10:51:45;;;;;;;;;;;27.80;61.50;;;;;;5139129;27;19930;-72
2022/08/13 10:54:11;;;;;;;;;;;27.80;59.30;;;;;;5139056;27;19923;-72
2022/08/13 10:56:37;;;;;;;;;;;27.80;61.20;;;;;;5157097;27;19923;-73
2022/08/13 10:59:03;;;;;;;;;;;27.80;60.90;;;;;;5157431;27;19923;-72
2022/08/13 11:01:29;;;;;;;;;;;27.80;58.80;;;;;;5157402;27;19934;-71
2022/08/13 11:03:57;;;;;;;;;;;27.90;59.80;;;;;;5157448;27;19923;-74
2022/08/13 11:06:27;;;;;;;;;;;27.70;59.30;;;;;;5138335;27;19948;-74
2022/08/13 11:08:54;;;;;;;;;;;27.80;59.50;;;;;;5173254;27;20009;-72
2022/08/13 11:11:20;;;;;;;;;;;27.90;61.20;;;;;;5156834;27;19968;-72
2022/08/13 11:13:46;;;;;;;;;;;27.50;62.20;;;;;;5138726;27;19923;-72
2022/08/13 11:18:58;;;;;;;;;;;27.90;59.60;;;;;;5157145;27;19923;-72
2022/08/13 11:21:25;;;;;;;;;;;28.00;60.00;;;;;;5156751;27;20273;-73
2022/08/13 11:23:50;;;;;;;;;;;27.90;60.70;;;;;;5156606;27;20390;-72
2022/08/13 11:26:16;;;;;;;;;;;27.90;61.00;;;;;;5171989;27;20017;-73
2022/08/13 11:28:42;;;;;;;;;;;27.90;60.00;;;;;;5156705;27;19993;-71
2022/08/13 11:31:07;;;;;;;;;;;27.90;59.90;;;;;;5156809;27;20011;-72
2022/08/13 11:33:33;;;;;;;;;;;28.00;58.60;;;;;;5172875;27;19927;-72
2022/08/13 11:35:58;;;;;;;;;;;27.90;59.70;;;;;;5156418;27;19982;-72
2022/08/13 11:38:24;;;;;;;;;;;28.40;59.30;;;;;;5156884;27;19923;-75
2022/08/13 11:40:51;;;;;;;;;;;28.00;60.50;;;;;;5156282;27;20009;-73
2022/08/13 11:43:16;;;;;;;;;;;28.00;57.40;;;;;;5155518;27;20005;-73
2022/08/13 11:45:42;;;;;;;;;;;28.00;59.30;;;;;;5137898;27;20014;-74
2022/08/13 11:48:08;;;;;;;;;;;28.00;60.30;;;;;;5156378;27;19930;-72
2022/08/13 11:50:34;;;;;;;;;;;28.00;59.40;;;;;;5138046;27;20112;-72
2022/08/13 11:52:59;;;;;;;;;;;28.10;59.40;;;;;;5156034;27;20408;-72
2022/08/13 11:55:25;;;;;;;;;;;28.00;58.00;;;;;;5156024;27;19923;-73
2022/08/13 11:58:00;;;;;;;;;;;28.00;58.60;;;;;;5155870;27;20403;-75
2022/08/13 12:00:26;;;;;;;;;;;28.10;60.30;;;;;;5156077;27;19982;-72
2022/08/13 12:02:52;;;;;;;;;;;28.10;58.10;;;;;;5137845;27;19950;-73
2022/08/13 12:05:18;;;;;;;;;;;28.10;59.10;;;;;;5155854;27;19927;-71
2022/08/13 12:07:44;;;;;;;;;;;28.10;58.40;;;;;;5155897;27;19930;-74
2022/08/13 12:10:10;;;;;;;;;;;28.10;57.90;;;;;;5155767;27;19930;-74
2022/08/13 12:12:36;;;;;;;;;;;28.10;57.90;;;;;;5172267;27;19923;-72
2022/08/13 12:15:01;;;;;;;;;;;28.10;57.70;;;;;;5137014;27;19976;-74
2022/08/13 12:17:27;;;;;;;;;;;28.10;57.30;;;;;;5155880;27;19923;-73
2022/08/13 12:19:53;;;;;;;;;;;28.10;58.80;;;;;;5155760;27;19980;-72
2022/08/13 12:22:19;;;;;;;;;;;28.10;58.90;;;;;;5136724;27;19934;-71
2022/08/13 12:24:44;;;;;;;;;;;28.10;59.30;;;;;;5136629;27;19991;-75
2022/08/13 12:27:10;;;;;;;;;;;28.20;58.20;;;;;;5154856;27;20365;-71
2022/08/13 12:29:35;;;;;;;;;;;28.20;60.40;;;;;;5155672;27;20038;-72
2022/08/13 12:32:01;;;;;;;;;;;28.20;60.20;;;;;;5155533;27;19923;-72
2022/08/13 12:34:26;;;;;;;;;;;28.20;58.80;;;;;;5136812;27;20302;-72
2022/08/13 12:36:52;;;;;;;;;;;28.30;57.80;;;;;;5155252;27;20370;-72
2022/08/13 12:39:17;;;;;;;;;;;28.20;58.30;;;;;;5136970;27;20282;-74
2022/08/13 12:41:43;;;;;;;;;;;28.20;58.70;;;;;;5155442;27;20013;-76
2022/08/13 12:44:10;;;;;;;;;;;28.10;58.60;;;;;;5155632;27;20313;-73
2022/08/13 12:46:38;;;;;;;;;;;28.20;57.40;;;;;;5155495;27;19929;-71
2022/08/13 12:49:05;;;;;;;;;;;28.20;58.40;;;;;;5155234;27;19984;-71
2022/08/13 12:51:31;;;;;;;;;;;28.20;57.40;;;;;;5155141;27;20377;-72
2022/08/13 12:53:57;;;;;;;;;;;28.30;56.80;;;;;;5137135;27;20293;-72
2022/08/13 12:56:23;;;;;;;;;;;28.40;56.20;;;;;;5136915;27;19929;-72
2022/08/13 12:58:48;;;;;;;;;;;28.40;56.10;;;;;;5155372;27;19927;-73
2022/08/13 13:01:14;;;;;;;;;;;28.40;57.10;;;;;;5155352;27;19923;-74
2022/08/13 13:03:39;;;;;;;;;;;28.40;58.00;;;;;;5155087;27;19922;-71
2022/08/13 13:06:05;;;;;;;;;;;28.40;57.20;;;;;;5137115;27;19923;-72
2022/08/13 13:08:31;;;;;;;;;;;28.30;56.00;;;;;;5155028;27;19923;-72
2022/08/13 13:10:58;;;;;;;;;;;28.30;56.20;;;;;;5155112;27;20067;-72
2022/08/13 13:13:25;;;;;;;;;;;28.20;57.20;;;;;;5137025;27;19923;-73
2022/08/13 13:15:51;;;;;;;;;;;28.20;56.40;;;;;;5171464;27;19923;-72
2022/08/13 13:18:21;;;;;;;;;;;28.20;56.00;;;;;;5155283;27;19923;-70
2022/08/13 13:20:47;;;;;;;;;;;28.20;57.00;;;;;;5135919;27;20302;-74
2022/08/13 13:23:17;;;;;;;;;;;28.20;57.80;;;;;;5154932;27;19923;-74
2022/08/13 13:25:43;;;;;;;;;;;28.30;56.40;;;;;;5136330;27;19992;-74
2022/08/13 13:28:10;;;;;;;;;;;28.30;56.30;;;;;;5155135;27;19948;-73
2022/08/13 13:30:36;;;;;;;;;;;28.30;56.20;;;;;;5154824;27;20354;-71
2022/08/13 13:33:03;;;;;;;;;;;28.30;56.70;;;;;;5154954;27;19974;-71
2022/08/13 13:35:29;;;;;;;;;;;28.30;56.50;;;;;;5136493;27;19931;-71
2022/08/13 13:37:55;;;;;;;;;;;28.30;58.40;;;;;;5154826;27;20034;-72
2022/08/13 13:40:20;;;;;;;;;;;28.40;55.90;;;;;;5158633;27;20362;-71
2022/08/13 13:42:46;;;;;;;;;;;28.40;55.40;;;;;;5144947;27;19924;-73
2022/08/13 13:45:11;;;;;;;;;;;28.50;56.50;;;;;;5155619;27;19930;-72
2022/08/13 13:47:37;;;;;;;;;;;28.50;56.00;;;;;;5158718;27;19923;-72
2022/08/13 13:50:04;;;;;;;;;;;28.50;56.80;;;;;;5140481;27;20413;-71
2022/08/13 13:52:30;;;;;;;;;;;28.50;55.10;;;;;;5158396;27;19946;-74
2022/08/13 13:54:56;;;;;;;;;;;28.60;55.10;;;;;;5158639;27;20382;-73
2022/08/13 13:57:21;;;;;;;;;;;28.60;56.60;;;;;;5158832;27;19941;-71
2022/08/13 13:59:47;;;;;;;;;;;28.60;55.90;;;;;;5158506;27;20017;-72
2022/08/13 14:02:13;;;;;;;;;;;28.60;55.80;;;;;;5140297;27;20015;-74
2022/08/13 14:04:40;;;;;;;;;;;28.60;57.00;;;;;;5158399;27;20277;-74
2022/08/13 14:07:06;;;;;;;;;;;28.60;56.20;;;;;;5158328;27;19975;-73
2022/08/13 14:09:32;;;;;;;;;;;28.60;55.90;;;;;;5158266;27;20334;-71
2022/08/13 14:11:59;;;;;;;;;;;28.60;56.60;;;;;;5158090;27;19978;-73
2022/08/13 14:14:24;;;;;;;;;;;28.60;55.90;;;;;;5158354;27;19923;-71
2022/08/13 14:16:52;;;;;;;;;;;28.60;56.10;;;;;;5158373;27;20361;-73
2022/08/13 14:19:19;;;;;;;;;;;28.60;55.50;;;;;;5158137;27;19923;-73
2022/08/13 14:21:53;;;;;;;;;;;28.60;55.50;;;;;;5158011;27;19923;-72
2022/08/13 14:24:19;;;;;;;;;;;28.70;55.20;;;;;;5157712;27;19934;-72
2022/08/13 14:26:45;;;;;;;;;;;28.70;55.50;;;;;;5157941;27;19923;-73
2022/08/13 14:29:11;;;;;;;;;;;28.70;55.20;;;;;;5157822;27;20399;-71
2022/08/13 14:31:36;;;;;;;;;;;28.80;55.40;;;;;;5157934;27;19930;-74
2022/08/13 14:34:02;;;;;;;;;;;28.80;55.40;;;;;;5157910;27;20385;-73